Kezdőlap
METAR-TAF:

METAR-TAF

Repülőterek :

Weno, Mikronézia

földrajzi szélesség: 07-28N, földrajzi hosszúság: 151-51E, magasság: 3 m

Jelenlegi meteorológiai megfigyelések

A jelentés 1 órával és 4 perccel ezelõtt készült, 03:52 UTC
Északkeleti szél 7 kt
Hőmérséklet 30°C
Páratartalom 79%
Légköri nyomás 1006 hPa
Látótávolság: 24.1 km
Kevés felhő 1400 lábon
Szórványos felhőzet 12000 lábon
Szakadozott felhőzet 28000 lábon

METAR: PTKK 100352Z 05007KT 15SM FEW014 SCT120 BKN280 30/26 A2970 RMK SLP059 T03000255

Idő: 14:56 (04:56 UTC)

Előrejelzés

A jelentés 5 órával és 26 perccel ezelõtt készült, 23:30 UTC
Az előrejelzés 10-én 00 óra UTC és 10-én 24 óra UTC között érvényes
Kelet-északkeleti szél 11 kt
Látótávolság: 10 km
Szórványos felhőzet 1400 lábon
Szórványos felhőzet 4000 lábon
Szakadozott felhőzet 12000 lábon
Záporok a közelben

TAF: PTKK 092330Z 1000/1024 07011KT P6SM VCSH SCT014 SCT040 BKN120

Meteorológiai megfigyelések és előrejelzések több, mint 4000 repülőtéren (METAR és TAF jelentéseket).

A térképen piros és sárga pontok jelzik az elérhető meteorológiai állomásokat.

Mozgassa az egeret a pont fölött, hogy megjelenjen az állomás neve.

Azután kattintson az időjárási megfigyelések és előrejelzések megtekintéséhez.

A térkép megváltoztatása: kattintson a fekete keresztel jelölt zöld gombra ráközelítéshez, a vonallal jelölt zöld gombra távolításhoz, vagy a zöld nyilakra a szomszédos térképek eléréséhez.


METAR-TAF: